地図

経路データ

SID SEASON NUMBER BASIN SUBBASIN NAME ISO_TIME NATURE LAT LON WMO_WIND WMO_PRES WMO_AGENCY TRACK_TYPE DIST2LAND LANDFALL IFLAG USA_AGENCY USA_ATCF_ID USA_LAT USA_LON USA_RECORD USA_STATUS USA_WIND USA_PRES USA_SSHS USA_R34_NE USA_R34_SE USA_R34_SW USA_R34_NW USA_R50_NE USA_R50_SE USA_R50_SW USA_R50_NW USA_R64_NE USA_R64_SE USA_R64_SW USA_R64_NW USA_POCI USA_ROCI USA_RMW USA_EYE TOKYO_LAT TOKYO_LON TOKYO_GRADE TOKYO_WIND TOKYO_PRES TOKYO_R50_DIR TOKYO_R50_LONG TOKYO_R50_SHORT TOKYO_R30_DIR TOKYO_R30_LONG TOKYO_R30_SHORT TOKYO_LAND CMA_LAT CMA_LON CMA_CAT CMA_WIND CMA_PRES HKO_LAT HKO_LON HKO_CAT HKO_WIND HKO_PRES NEWDELHI_LAT NEWDELHI_LON NEWDELHI_GRADE NEWDELHI_WIND NEWDELHI_PRES NEWDELHI_CI NEWDELHI_DP NEWDELHI_POCI REUNION_LAT REUNION_LON REUNION_TYPE REUNION_WIND REUNION_PRES REUNION_TNUM REUNION_CI REUNION_RMW REUNION_R34_NE REUNION_R34_SE REUNION_R34_SW REUNION_R34_NW REUNION_R50_NE REUNION_R50_SE REUNION_R50_SW REUNION_R50_NW REUNION_R64_NE REUNION_R64_SE REUNION_R64_SW REUNION_R64_NW BOM_LAT BOM_LON BOM_TYPE BOM_WIND BOM_PRES BOM_TNUM BOM_CI BOM_RMW BOM_R34_NE BOM_R34_SE BOM_R34_SW BOM_R34_NW BOM_R50_NE BOM_R50_SE BOM_R50_SW BOM_R50_NW BOM_R64_NE BOM_R64_SE BOM_R64_SW BOM_R64_NW BOM_ROCI BOM_POCI BOM_EYE BOM_POS_METHOD BOM_PRES_METHOD NADI_LAT NADI_LON NADI_CAT NADI_WIND NADI_PRES WELLINGTON_LAT WELLINGTON_LON WELLINGTON_WIND WELLINGTON_PRES DS824_LAT DS824_LON DS824_STAGE DS824_WIND DS824_PRES TD9636_LAT TD9636_LON TD9636_STAGE TD9636_WIND TD9636_PRES TD9635_LAT TD9635_LON TD9635_WIND TD9635_PRES TD9635_ROCI NEUMANN_LAT NEUMANN_LON NEUMANN_CLASS NEUMANN_WIND NEUMANN_PRES MLC_LAT MLC_LON MLC_CLASS MLC_WIND MLC_PRES USA_GUST BOM_GUST BOM_GUST_PER REUNION_GUST REUNION_GUST_PER USA_SEAHGT USA_SEARAD_NE USA_SEARAD_SE USA_SEARAD_SW USA_SEARAD_NW STORM_SPEED STORM_DIR
1954300N13269 1954 86 EP MM NOT_NAMED 1954-10-26 12:00:00 TS 12.6000 -91.1000 75 hurdat_epa main 145 145 O________OO___ hurdat_epa EP111954 12.6000 -91.1000 HU 75 1 12.6000 -91.1000 TC 75 12.6000 -91.1000 4 9 271
1954300N13269 1954 86 EP MM NOT_NAMED 1954-10-26 15:00:00 TS 12.6041 -91.5451 main 147 147 P________PP___ EP111954 12.5977 -91.5600 HU 75 1 12.5977 -91.5600 TC 75 12.6295 -91.4855 4 9 271
1954300N13269 1954 86 EP MM NOT_NAMED 1954-10-26 18:00:00 TS 12.6094 -91.9794 75 hurdat_epa main 164 164 O________OP___ hurdat_epa EP111954 12.6000 -92.0000 HU 75 1 12.6000 -92.0000 TC 75 12.6471 -91.8968 4 8 271
1954300N13269 1954 86 EP MM NOT_NAMED 1954-10-26 21:00:00 TS 12.6140 -92.4079 main 188 188 P________PP___ EP111954 12.6073 -92.4200 HU 75 1 12.6073 -92.4200 TC 75 12.6412 -92.3597 4 9 269
1954300N13269 1954 86 EP MM NOT_NAMED 1954-10-27 00:00:00 TS 12.6000 -92.9000 75 hurdat_epa main 215 215 O________OO___ hurdat_epa EP111954 12.6000 -92.9000 HU 75 1 12.6000 -92.9000 TC 75 12.6000 -92.9000 4 11 267
1954300N13269 1954 86 EP MM NOT_NAMED 1954-10-27 03:00:00 TS 12.5500 -93.5164 main 254 254 P________PP___ EP111954 12.5575 -93.5126 HU 75 1 12.5575 -93.5126 TC 75 12.5202 -93.5315 4 13 265
1954300N13269 1954 86 EP MM NOT_NAMED 1954-10-27 06:00:00 TS 12.4867 -94.2043 75 hurdat_epa main 311 311 O________OP___ hurdat_epa EP111954 12.5000 -94.2000 HU 75 1 12.5000 -94.2000 TC 75 12.4333 -94.2214 4 14 264
1954300N13269 1954 86 EP MM NOT_NAMED 1954-10-27 09:00:00 TS 12.4059 -94.9173 main 373 373 P________PP___ EP111954 12.4125 -94.9152 HU 75 1 12.4125 -94.9152 TC 75 12.3795 -94.9255 4 14 266
1954300N13269 1954 86 EP MM NOT_NAMED 1954-10-27 12:00:00 TS 12.4000 -95.6000 75 hurdat_epa main 374 351 O________OO___ hurdat_epa EP111954 12.4000 -95.6000 HU 75 1 12.4000 -95.6000 TC 75 12.4000 -95.6000 4 12 277
1954300N13269 1954 86 EP MM NOT_NAMED 1954-10-27 15:00:00 TS 12.5585 -96.1733 main 338 313 P________PP___ EP111954 12.5547 -96.1724 HU 75 1 12.5547 -96.1724 TC 75 12.5735 -96.1768 4 12 291
1954300N13269 1954 86 EP MM NOT_NAMED 1954-10-27 18:00:00 TS 12.8038 -96.7042 75 hurdat_epa main 313 287 O________OP___ hurdat_epa EP111954 12.8000 -96.7000 HU 75 1 12.8000 -96.7000 TC 75 12.8189 -96.7212 4 12 296
1954300N13269 1954 86 EP MM NOT_NAMED 1954-10-27 21:00:00 TS 13.0738 -97.2449 main 287 279 P________PP___ EP111954 13.0723 -97.2424 HU 75 1 13.0723 -97.2424 TC 75 13.0798 -97.2551 4 12 295
1954300N13269 1954 86 EP MM NOT_NAMED 1954-10-28 00:00:00 TS 13.3000 -97.8000 75 hurdat_epa main 288 288 O________OO___ hurdat_epa EP111954 13.3000 -97.8000 HU 75 1 13.3000 -97.8000 TC 75 13.3000 -97.8000 4 11 286
1954300N13269 1954 86 EP MM NOT_NAMED 1954-10-28 03:00:00 TS 13.3813 -98.3810 main 298 298 P________PP___ EP111954 13.3799 -98.3927 HU 75 1 13.3799 -98.3927 TC 75 13.3868 -98.3340 4 12 275
1954300N13269 1954 86 EP MM NOT_NAMED 1954-10-28 06:00:00 TS 13.4056 -98.9778 75 hurdat_epa main 318 318 O________OP___ hurdat_epa EP111954 13.4000 -99.0000 HU 75 1 13.4000 -99.0000 TC 75 13.4280 -98.8892 4 11 273
1954300N13269 1954 86 EP MM NOT_NAMED 1954-10-28 09:00:00 TS 13.4446 -99.5381 main 338 331 P________PP___ EP111954 13.4419 -99.5477 HU 75 1 13.4419 -99.5477 TC 75 13.4552 -99.4997 4 12 275
1954300N13269 1954 86 EP MM NOT_NAMED 1954-10-28 12:00:00 TS 13.5000 -100.200 75 hurdat_epa main 357 357 O________OO___ hurdat_epa EP111954 13.5000 -100.200 HU 75 1 13.5000 -100.200 TC 75 13.5000 -100.200 4 15 276
1954300N13269 1954 86 EP MM NOT_NAMED 1954-10-28 15:00:00 TS 13.5918 -101.110 main 378 378 P________PP___ EP111954 13.5852 -101.105 HU 75 1 13.5852 -101.105 TC 75 13.6182 -101.132 4 19 276
1954300N13269 1954 86 EP MM NOT_NAMED 1954-10-28 18:00:00 TS 13.7108 -102.108 75 hurdat_epa main 415 415 O________OP___ hurdat_epa EP111954 13.7000 -102.100 HU 75 1 13.7000 -102.100 TC 75 13.7538 -102.139 4 20 278
1954300N13269 1954 86 EP MM NOT_NAMED 1954-10-28 21:00:00 TS 13.8637 -103.098 main 436 436 P________PP___ EP111954 13.8578 -103.097 HU 75 1 13.8578 -103.097 TC 75 13.8870 -103.101 4 18 279
1954300N13269 1954 86 EP MM NOT_NAMED 1954-10-29 00:00:00 TS 14.0000 -103.900 75 hurdat_epa main 468 468 O________OO___ hurdat_epa EP111954 14.0000 -103.900 HU 75 1 14.0000 -103.900 TC 75 14.0000 -103.900 4 12 280
1954300N13269 1954 86 EP MM NOT_NAMED 1954-10-29 03:00:00 TS 14.0613 -104.302 main 472 472 P________PP___ EP111954 14.0644 -104.290 HU 75 1 14.0644 -104.290 TC 75 14.0487 -104.348 4 6 279
1954300N13269 1954 86 EP MM NOT_NAMED 1954-10-29 06:00:00 TS 14.0964 -104.526 75 hurdat_epa main 479 479 O________OP___ hurdat_epa EP111954 14.1000 -104.500 HU 75 1 14.1000 -104.500 TC 75 14.0819 -104.628 4 5 279
1954300N13269 1954 86 EP MM NOT_NAMED 1954-10-29 09:00:00 TS 14.1327 -104.785 main 489 482 P________PP___ EP111954 14.1348 -104.770 HU 75 1 14.1348 -104.770 TC 75 14.1243 -104.845 4 6 281
1954300N13269 1954 86 EP MM NOT_NAMED 1954-10-29 12:00:00 TS 14.2000 -105.100 75 hurdat_epa main 489 487 O________OO___ hurdat_epa EP111954 14.2000 -105.100 HU 75 1 14.2000 -105.100 TC 75 14.2000 -105.100 4 8 285
1954300N13269 1954 86 EP MM NOT_NAMED 1954-10-29 15:00:00 TS 14.3289 -105.556 main 500 490 P________PP___ EP111954 14.3276 -105.570 HU 75 1 14.3276 -105.570 TC 75 14.3345 -105.502 4 10 288
1954300N13269 1954 86 EP MM NOT_NAMED 1954-10-29 18:00:00 TS 14.5008 -106.073 75 hurdat_epa main 507 504 O________OP___ hurdat_epa EP111954 14.5000 -106.100 HU 75 1 14.5000 -106.100 TC 75 14.5041 -105.965 4 10 291
1954300N13269 1954 86 EP MM NOT_NAMED 1954-10-29 21:00:00 TS 14.6930 -106.549 main 514 514 P________PP___ EP111954 14.6921 -106.563 HU 75 1 14.6921 -106.563 TC 75 14.6967 -106.496 4 11 292
1954300N13269 1954 86 EP MM NOT_NAMED 1954-10-30 00:00:00 TS 14.9000 -107.100 75 hurdat_epa main 539 539 O________OO___ hurdat_epa EP111954 14.9000 -107.100 HU 75 1 14.9000 -107.100 TC 75 14.9000 -107.100 4 13 289
1954300N13269 1954 86 EP MM NOT_NAMED 1954-10-30 03:00:00 TS 15.1003 -107.806 main 558 558 P________PP___ EP111954 15.1001 -107.813 HU 75 1 15.1001 -107.813 TC 75 15.1013 -107.782 4 15 286
1954300N13269 1954 86 EP MM NOT_NAMED 1954-10-30 06:00:00 TS 15.3016 -108.586 75 hurdat_epa main 594 594 O________OP___ hurdat_epa EP111954 15.3000 -108.600 HU 75 1 15.3000 -108.600 TC 75 15.3080 -108.532 4 15 285
1954300N13269 1954 86 EP MM NOT_NAMED 1954-10-30 09:00:00 TS 15.5019 -109.343 main 631 631 P________PP___ EP111954 15.4997 -109.350 HU 75 1 15.4997 -109.350 TC 75 15.5105 -109.317 4 15 285
1954300N13269 1954 86 EP MM NOT_NAMED 1954-10-30 12:00:00 TS 15.7000 -110.100 75 hurdat_epa main 677 677 O________OO___ hurdat_epa EP111954 15.7000 -110.100 HU 75 1 15.7000 -110.100 TC 75 15.7000 -110.100 4 15 286
1954300N13269 1954 86 EP MM NOT_NAMED 1954-10-30 15:00:00 TS 15.9071 -110.858 main 729 729 P________PP___ EP111954 15.9148 -110.857 HU 75 1 15.9148 -110.857 TC 75 15.8763 -110.861 4 15 285
1954300N13269 1954 86 EP MM NOT_NAMED 1954-10-30 18:00:00 TS 16.0875 -111.602 75 hurdat_epa main 778 775 O________OP___ hurdat_epa EP111954 16.1000 -111.600 HU 75 1 16.1000 -111.600 TC 75 16.0373 -111.610 4 14 282
1954300N13269 1954 86 EP MM NOT_NAMED 1954-10-30 21:00:00 TS 16.2137 -112.318 main 787 786 P________PP___ EP111954 16.2223 -112.315 HU 75 1 16.2223 -112.315 TC 75 16.1796 -112.329 4 14 279
1954300N13269 1954 86 EP MM NOT_NAMED 1954-10-31 00:00:00 TS 16.3000 -113.000 75 hurdat_epa main 802 802 O________OO___ hurdat_epa EP111954 16.3000 -113.000 HU 75 1 16.3000 -113.000 TC 75 16.3000 -113.000 4 13 276
1954300N13269 1954 86 EP MM NOT_NAMED 1954-10-31 03:00:00 TS 16.3592 -113.677 main 823 823 P________PP___ EP111954 16.3500 -113.688 HU 75 1 16.3500 -113.688 TC 75 16.3959 -113.633 4 12 275
1954300N13269 1954 86 EP MM NOT_NAMED 1954-10-31 06:00:00 TS 16.4144 -114.283 75 hurdat_epa main 855 855 O________OP___ hurdat_epa EP111954 16.4000 -114.300 HU 75 1 16.4000 -114.300 TC 75 16.4718 -114.213 4 11 278
1954300N13269 1954 86 EP MM NOT_NAMED 1954-10-31 09:00:00 TS 16.5072 -114.783 main 874 874 P________PP___ EP111954 16.4998 -114.795 HU 75 1 16.4998 -114.795 TC 75 16.5368 -114.736 4 9 282
1954300N13269 1954 86 EP MM NOT_NAMED 1954-10-31 12:00:00 TS 16.6000 -115.200 75 hurdat_epa main 890 890 O________OO___ hurdat_epa EP111954 16.6000 -115.200 HU 75 1 16.6000 -115.200 TC 75 16.6000 -115.200 4 8 280
1954300N13269 1954 86 EP MM NOT_NAMED 1954-10-31 15:00:00 TS 16.6474 -115.575 main 916 907 P________PP___ EP111954 16.6499 -115.565 HU 75 1 16.6499 -115.565 TC 75 16.6378 -115.616 4 7 278
1954300N13269 1954 86 EP MM NOT_NAMED 1954-10-31 18:00:00 TS 16.6963 -115.915 75 hurdat_epa main 928 928 O________OP___ hurdat_epa EP111954 16.7000 -115.900 HU 75 1 16.7000 -115.900 TC 75 16.6817 -115.976 4 7 280
1954300N13269 1954 86 EP MM NOT_NAMED 1954-10-31 21:00:00 TS 16.7679 -116.260 main 948 948 P________PP___ EP111954 16.7699 -116.250 HU 75 1 16.7699 -116.250 TC 75 16.7598 -116.298 4 7 287
1954300N13269 1954 86 EP MM NOT_NAMED 1954-11-01 00:00:00 TS 16.9000 -116.600 75 hurdat_epa main 962 961 O________OO___ hurdat_epa EP111954 16.9000 -116.600 HU 75 1 16.9000 -116.600 TC 75 16.9000 -116.600 4 7 298
1954300N13269 1954 86 EP MM NOT_NAMED 1954-11-01 03:00:00 TS 17.1143 -116.952 main 977 969 P________PP___ EP111954 17.1125 -116.965 HU 75 1 17.1125 -116.965 TC 75 17.1217 -116.899 4 8 308
1954300N13269 1954 86 EP MM NOT_NAMED 1954-11-01 06:00:00 TS 17.4021 -117.280 75 hurdat_epa main 977 961 O________OP___ hurdat_epa EP111954 17.4000 -117.300 HU 75 1 17.4000 -117.300 TC 75 17.4106 -117.199 4 9 317
1954300N13269 1954 86 EP MM NOT_NAMED 1954-11-01 09:00:00 TS 17.7389 -117.556 main 968 944 P________PP___ EP111954 17.7375 -117.570 HU 75 1 17.7375 -117.570 TC 75 17.7443 -117.499 4 9 325
1954300N13269 1954 86 EP MM NOT_NAMED 1954-11-01 12:00:00 TS 18.1000 -117.800 75 hurdat_epa main 944 O________OO___ hurdat_epa EP111954 18.1000 -117.800 HU 75 1 18.1000 -117.800 TC 75 18.1000 -117.800 4 9 328

IBTrACS Databaseについて

本データベースは、米国NOAAが公開する1842年以降の世界の熱帯低気圧のベストトラックデータアーカイブInternational Best Track Archive for Climate Stewardship (IBTrACS)を、ウェブで閲覧しやすい形式に変換したものです。

最終更新日:2021-11-26